Time;durP1;ratioP1;P1;durP2;ratioP2;P2;SDS_P1;SDS_P2;PMS_P1;PMS_P2;Temp;Humidity;BMP_temperature;BMP_pressure;BME280_temperature;BME280_humidity;BME280_pressure;Samples;Min_cycle;Max_cycle;Signal;HPM_P1;HPM_P2
2021/10/13 00:01:37;;;;;;;33.00;21.27;;;;;;;8.34;68.93;99120.16;1738947;82;21083;-72
2021/10/13 00:04:04;;;;;;;30.88;20.82;;;;;;;8.29;69.22;99107.94;1736859;81;21019;-72
2021/10/13 00:06:31;;;;;;;30.80;20.90;;;;;;;8.26;69.30;99107.11;1717481;83;21089;-71
2021/10/13 00:08:57;;;;;;;;;;;;;;;8.26;69.51;99110.35;1691915;83;21046;-71
2021/10/13 00:11:24;;;;;;;26.75;18.95;;;;;;;8.20;69.62;99112.80;1717506;83;20113;-71
2021/10/13 00:13:50;;;;;;;27.85;19.32;;;;;;;8.12;69.97;99109.27;1717572;83;21031;-70
2021/10/13 00:16:17;;;;;;;26.82;20.02;;;;;;;8.10;70.20;99101.96;1718586;82;22227;-70
2021/10/13 00:18:43;;;;;;;25.55;18.85;;;;;;;8.09;70.30;99097.61;1717780;83;21038;-69
2021/10/13 00:21:10;;;;;;;27.62;19.73;;;;;;;8.15;70.25;99091.92;1717738;83;21131;-70
2021/10/13 00:23:37;;;;;;;28.25;19.07;;;;;;;8.17;70.18;99079.46;1718435;82;21039;-69
2021/10/13 00:26:03;;;;;;;25.82;19.07;;;;;;;8.13;70.30;99083.26;1717590;83;21015;-69
2021/10/13 00:28:30;;;;;;;27.80;18.77;;;;;;;8.09;70.55;99070.50;1717965;83;21596;-70
2021/10/13 00:30:56;;;;;;;25.05;17.95;;;;;;;8.06;70.65;99076.48;1717731;83;21027;-70
2021/10/13 00:33:23;;;;;;;27.85;18.05;;;;;;;8.08;70.67;99075.67;1718430;82;20987;-70
2021/10/13 00:35:49;;;;;;;25.62;18.20;;;;;;;8.05;70.80;99075.66;1717707;83;21557;-70
2021/10/13 00:38:15;;;;;;;26.37;18.45;;;;;;;8.02;70.97;99076.20;1717969;83;21549;-72
2021/10/13 00:40:42;;;;;;;27.05;17.82;;;;;;;8.04;71.04;99076.77;1717635;83;21047;-72
2021/10/13 00:43:08;;;;;;;24.90;16.32;;;;;;;8.10;70.92;99079.73;1718299;82;21478;-71
2021/10/13 00:45:35;;;;;;;25.30;17.37;;;;;;;8.15;70.78;99081.07;1717930;83;21051;-71
2021/10/13 00:48:01;;;;;;;25.37;18.40;;;;;;;8.17;70.78;99074.03;1718142;83;21538;-71
2021/10/13 00:50:28;;;;;;;26.05;17.85;;;;;;;8.15;70.78;99072.94;1689091;83;21457;-72
2021/10/13 00:52:54;;;;;;;26.35;18.42;;;;;;;8.14;70.81;99081.36;1718332;82;20995;-71
2021/10/13 00:55:21;;;;;;;26.75;18.57;;;;;;;8.15;70.81;99089.20;1718188;82;21114;-71
2021/10/13 00:57:51;;;;;;;25.40;18.05;;;;;;;8.15;70.80;99087.06;1717597;83;21487;-71
2021/10/13 01:00:21;;;;;;;27.32;18.62;;;;;;;8.13;70.84;99098.70;1717490;83;21598;-69
2021/10/13 01:03:30;;;;;;;25.65;18.35;;;;;;;8.10;71.01;99093.83;1725334;82;21327;-70
2021/10/13 01:06:21;;;;;;;26.37;18.65;;;;;;;8.00;71.27;99094.64;1717844;83;21042;-70
2021/10/13 01:09:24;;;;;;;28.50;19.52;;;;;;;7.89;71.64;99094.36;1717476;83;21092;-70
2021/10/13 01:12:14;;;;;;;27.22;17.85;;;;;;;7.87;71.88;99091.09;1718092;82;21550;-70
2021/10/13 01:15:10;;;;;;;29.90;18.12;;;;;;;7.83;71.98;99078.63;1717810;83;21055;-70
2021/10/13 01:18:55;;;;;;;26.57;18.25;;;;;;;7.92;72.03;99081.09;1801440;79;22849;-69
2021/10/13 01:21:48;;;;;;;29.20;18.85;;;;;;;7.82;72.21;99085.15;1754477;81;21035;-70
2021/10/13 01:25:03;;;;;;;28.35;18.02;;;;;;;7.80;72.36;99088.66;1753079;82;21015;-70
2021/10/13 01:27:51;;;;;;;25.82;17.90;;;;;;;7.78;72.36;99092.72;1752848;82;21034;-69
2021/10/13 01:30:18;;;;;;;27.80;18.65;;;;;;;7.77;72.47;99098.67;1752708;82;21114;-69
2021/10/13 01:32:49;;;;;;;26.55;19.98;;;;;;;7.79;72.55;99097.06;1753109;82;21007;-69
2021/10/13 01:35:15;;;;;;;27.05;18.82;;;;;;;7.77;72.67;99091.08;1752343;82;21110;-70
2021/10/13 01:37:46;;;;;;;29.10;19.27;;;;;;;7.71;72.92;99086.75;1753251;82;21011;-69
2021/10/13 01:40:14;;;;;;;25.40;18.95;;;;;;;7.65;73.15;99090.55;1752781;82;21073;-70
2021/10/13 01:42:43;;;;;;;28.00;19.07;;;;;;;7.64;73.27;99091.61;1752999;82;21553;-69
2021/10/13 01:45:10;;;;;;;27.55;19.02;;;;;;;7.63;73.34;99081.85;1753095;82;21024;-70
2021/10/13 01:47:36;;;;;;;29.18;18.73;;;;;;;7.59;73.52;99076.16;1753114;82;21605;-70
2021/10/13 01:50:04;;;;;;;27.90;18.85;;;;;;;7.55;73.68;99079.13;1723668;82;21019;-70
2021/10/13 01:52:30;;;;;;;25.52;18.73;;;;;;;7.55;73.78;99082.37;1723826;82;20979;-69
2021/10/13 01:54:58;;;;;;;;;;;;;;;7.61;73.72;99079.97;1755849;82;21003;-70
2021/10/13 01:57:25;;;;;;;29.65;19.05;;;;;;;7.65;73.59;99079.70;1752924;82;20111;-69
2021/10/13 01:59:53;;;;;;;26.10;19.05;;;;;;;7.57;73.72;99081.58;1752972;82;20967;-70
2021/10/13 02:02:19;;;;;;;28.32;19.32;;;;;;;7.55;73.84;99084.54;1752848;82;21505;-69
2021/10/13 02:04:46;;;;;;;26.77;18.67;;;;;;;7.54;73.84;99088.89;1753270;82;21011;-69
2021/10/13 02:07:12;;;;;;;27.27;19.10;;;;;;;7.56;73.79;99092.95;1752864;82;21098;-70
2021/10/13 02:09:38;;;;;;;24.10;18.07;;;;;;;7.57;73.69;99102.71;1753195;82;21450;-69
2021/10/13 02:12:05;;;;;;;27.95;19.85;;;;;;;7.63;73.59;99094.86;1752952;82;21114;-70
2021/10/13 02:14:32;;;;;;;29.45;19.92;;;;;;;7.60;73.53;99101.35;1753223;82;21077;-70
2021/10/13 02:16:58;;;;;;;26.55;18.67;;;;;;;7.52;73.69;99101.33;1753320;81;21043;-70
2021/10/13 02:19:27;;;;;;;25.88;18.37;;;;;;;7.51;73.77;99105.92;1753252;81;21046;-71
2021/10/13 02:21:56;;;;;;;26.07;18.85;;;;;;;7.57;73.66;99104.60;1753531;81;21079;-71
2021/10/13 02:24:49;;;;;;;26.12;18.85;;;;;;;7.59;73.53;99101.07;1753917;82;21038;-71
2021/10/13 02:27:29;;;;;;;26.65;19.77;;;;;;;7.59;73.58;99103.78;1753572;81;21047;-71
2021/10/13 02:29:56;;;;;;;24.90;19.10;;;;;;;7.53;73.65;99105.67;1744356;81;21023;-72
2021/10/13 02:32:22;;;;;;;;;;;;;;;7.53;73.64;99111.09;1734114;81;21062;-72
2021/10/13 02:34:49;;;;;;;28.15;19.92;;;;;;;7.55;73.57;99113.52;1723230;83;20144;-72
2021/10/13 02:37:15;;;;;;;26.55;18.75;;;;;;;7.51;73.67;99118.65;1727499;82;21027;-72
2021/10/13 02:39:43;;;;;;;27.82;20.25;;;;;;;7.49;73.69;99114.88;1753226;81;21014;-72
2021/10/13 02:42:10;;;;;;;29.70;20.60;;;;;;;7.44;73.72;99108.61;1753559;82;21050;-71
2021/10/13 02:44:36;;;;;;;28.62;19.77;;;;;;;7.44;73.68;99106.72;1753159;81;21023;-73
2021/10/13 02:47:17;;;;;;;27.42;18.57;;;;;;;7.43;73.57;99117.84;1753576;81;21556;-72
2021/10/13 02:50:07;;;;;;;24.10;17.37;;;;;;;7.42;73.56;99122.97;1753189;81;21526;-71
2021/10/13 02:53:06;;;;;;;27.00;19.27;;;;;;;7.40;73.48;99127.85;1753583;82;21073;-71
2021/10/13 02:55:36;;;;;;;28.42;19.55;;;;;;;7.33;73.54;99125.36;1746883;82;21058;-72
2021/10/13 02:58:21;;;;;;;26.40;20.17;;;;;;;7.24;73.55;99122.91;1715120;83;21074;-72
2021/10/13 03:00:49;;;;;;;30.95;19.85;;;;;;;7.20;73.45;99120.45;1750820;82;21043;-72
2021/10/13 03:03:41;;;;;;;28.83;20.15;;;;;;;7.13;73.38;99119.88;1753419;82;21062;-72
2021/10/13 03:06:07;;;;;;;28.05;19.12;;;;;;;7.15;73.36;99126.39;1752081;82;21011;-70
2021/10/13 03:08:36;;;;;;;26.57;19.23;;;;;;;7.09;73.32;99124.72;1753181;81;21545;-72
2021/10/13 03:11:02;;;;;;;26.12;19.05;;;;;;;6.91;73.48;99123.28;1753058;81;21059;-71
2021/10/13 03:13:32;;;;;;;26.48;19.30;;;;;;;6.83;73.65;99128.67;1753485;82;21078;-72
2021/10/13 03:16:01;;;;;;;27.02;19.27;;;;;;;6.82;73.61;99135.16;1752851;81;21039;-72
2021/10/13 03:18:28;;;;;;;25.23;18.75;;;;;;;6.82;73.56;99139.21;1742968;82;21047;-71
2021/10/13 03:20:54;;;;;;;;;;;;;;;6.77;73.57;99136.99;1741731;82;21091;-71
2021/10/13 03:23:21;;;;;;;27.55;18.80;;;;;;;6.69;73.70;99137.51;1739308;82;20107;-71
2021/10/13 03:25:51;;;;;;;28.23;20.35;;;;;;;6.54;74.00;99130.64;1739048;82;21039;-71
2021/10/13 03:28:15;;;;;;;26.87;19.45;;;;;;;6.52;74.05;99133.59;1738901;82;21071;-71
2021/10/13 03:30:44;;;;;;;25.52;19.07;;;;;;;6.52;73.94;99128.74;1739111;82;21075;-71
2021/10/13 03:33:13;;;;;;;28.10;19.45;;;;;;;6.49;73.94;99124.11;1739229;82;21541;-72
2021/10/13 03:35:39;;;;;;;33.88;19.20;;;;;;;6.42;74.08;99132.98;1738837;82;21067;-71
2021/10/13 03:38:06;;;;;;;25.77;18.82;;;;;;;6.37;74.12;99134.31;1739227;82;21036;-71
2021/10/13 03:40:33;;;;;;;;;;;;;;;6.32;74.12;99132.09;1722869;82;21063;-71
2021/10/13 03:43:00;;;;;;;26.52;19.82;;;;;;;6.31;74.07;99132.63;1708309;84;20105;-71
2021/10/13 03:45:27;;;;;;;24.50;17.25;;;;;;;6.24;74.19;99135.27;1729561;82;21063;-71
2021/10/13 03:47:53;;;;;;;25.37;18.32;;;;;;;6.20;74.42;99138.23;1739281;82;21063;-71
2021/10/13 03:50:20;;;;;;;26.48;19.25;;;;;;;6.11;74.70;99150.56;1739449;82;21040;-71
2021/10/13 03:52:48;;;;;;;24.02;19.00;;;;;;;6.01;74.97;99156.70;1739092;82;21055;-71
2021/10/13 03:55:16;;;;;;;26.40;19.00;;;;;;;6.02;74.94;99157.52;1739219;82;21640;-71
2021/10/13 03:57:43;;;;;;;26.40;18.85;;;;;;;6.03;74.75;99164.00;1739329;82;21015;-71
2021/10/13 04:00:13;;;;;;;;;;;;;;;6.00;74.78;99161.81;1741932;82;21039;-71
2021/10/13 04:02:40;;;;;;;26.37;18.40;;;;;;;5.96;74.98;99160.69;1739174;82;20426;-71
2021/10/13 04:05:08;;;;;;;28.55;19.10;;;;;;;5.76;75.51;99150.48;1739235;82;21008;-71
2021/10/13 04:07:34;;;;;;;27.35;18.17;;;;;;;5.66;75.93;99144.98;1739046;82;21090;-71
2021/10/13 04:10:01;;;;;;;25.88;19.17;;;;;;;5.62;76.13;99147.09;1739558;82;21574;-71
2021/10/13 04:12:29;;;;;;;25.17;18.52;;;;;;;5.60;76.35;99140.58;1738252;82;21016;-71
2021/10/13 04:14:56;;;;;;;23.52;16.80;;;;;;;5.58;76.55;99148.13;1739322;82;21124;-71
2021/10/13 04:17:23;;;;;;;28.00;18.85;;;;;;;5.56;76.63;99147.58;1740974;81;21486;-71
2021/10/13 04:19:49;;;;;;;28.15;18.37;;;;;;;5.54;76.71;99144.30;1753398;81;21039;-71
2021/10/13 04:22:16;;;;;;;25.70;19.55;;;;;;;5.50;76.74;99152.09;1752997;82;21491;-71
2021/10/13 04:24:42;;;;;;;24.63;18.00;;;;;;;5.45;76.74;99153.39;1753348;82;20999;-71
2021/10/13 04:27:08;;;;;;;27.10;18.73;;;;;;;5.46;76.65;99146.91;1753520;81;21470;-71
2021/10/13 04:29:35;;;;;;;25.25;18.40;;;;;;;5.45;76.53;99152.58;1753235;82;21097;-71
2021/10/13 04:32:01;;;;;;;27.45;18.77;;;;;;;5.43;76.54;99151.47;1753358;82;20987;-71
2021/10/13 04:34:28;;;;;;;;;;;;;;;5.42;76.73;99148.48;1755610;81;21055;-72
2021/10/13 04:36:54;;;;;;;29.37;20.25;;;;;;;5.38;76.97;99153.30;1753185;82;20126;-69
2021/10/13 04:39:20;;;;;;;28.98;19.17;;;;;;;5.26;77.43;99151.25;1753108;81;21564;-70
2021/10/13 04:41:46;;;;;;;24.85;18.32;;;;;;;5.26;77.64;99160.70;1753242;82;21034;-72
2021/10/13 04:44:13;;;;;;;27.62;18.82;;;;;;;5.27;77.71;99166.39;1753113;82;21035;-69
2021/10/13 04:46:39;;;;;;;28.52;20.72;;;;;;;5.30;77.85;99161.30;1753105;81;21074;-68
2021/10/13 04:49:06;;;;;;;30.45;21.27;;;;;;;5.30;77.95;99157.26;1725623;82;21046;-71
2021/10/13 04:51:32;;;;;;;29.90;20.70;;;;;;;5.24;78.22;99162.31;1725578;82;21051;-71
2021/10/13 04:53:58;;;;;;;28.92;20.55;;;;;;;5.24;78.43;99164.20;1753117;82;21090;-71
2021/10/13 04:56:25;;;;;;;30.08;20.37;;;;;;;5.27;78.48;99155.06;1753266;82;21494;-69
2021/10/13 04:58:51;;;;;;;30.62;21.25;;;;;;;5.32;78.56;99148.36;1753276;82;21055;-69
2021/10/13 05:01:17;;;;;;;27.45;20.43;;;;;;;5.33;78.62;99140.55;1752905;81;21039;-69
2021/10/13 05:03:44;;;;;;;31.95;21.73;;;;;;;5.34;78.82;99142.20;1753334;82;21498;-69
2021/10/13 05:06:10;;;;;;;33.80;21.82;;;;;;;5.33;79.08;99143.78;1753131;82;21043;-69
2021/10/13 05:08:37;;;;;;;;;;;;;;;5.37;79.24;99145.73;1755577;82;21098;-70
2021/10/13 05:11:03;;;;;;;29.48;20.77;;;;;;;5.44;79.33;99154.45;1701458;82;20106;-71
2021/10/13 05:13:29;;;;;;;33.67;22.65;;;;;;;5.45;79.48;99156.09;1753197;81;21027;-70
2021/10/13 05:15:56;;;;;;;31.02;20.40;;;;;;;5.49;79.62;99167.99;1753255;81;21051;-70
2021/10/13 05:18:22;;;;;;;31.25;21.35;;;;;;;5.54;79.71;99169.95;1746779;81;21035;-69
2021/10/13 05:20:49;;;;;;;30.75;20.92;;;;;;;5.57;79.86;99169.44;1739283;82;21091;-69
2021/10/13 05:23:15;;;;;;;27.13;20.15;;;;;;;5.64;79.97;99170.59;1739176;82;21031;-69
2021/10/13 05:25:42;;;;;;;28.35;19.65;;;;;;;5.75;79.99;99183.13;1739271;82;21123;-70
2021/10/13 05:28:09;;;;;;;29.67;20.75;;;;;;;5.85;79.94;99185.94;1738993;82;21621;-69
2021/10/13 05:30:35;;;;;;;;;;;;;;;5.92;79.95;99187.94;1741648;82;21051;-70
2021/10/13 05:33:01;;;;;;;29.10;21.00;;;;;;;6.00;79.82;99190.19;1739026;82;20452;-70
2021/10/13 05:35:28;;;;;;;29.00;19.48;;;;;;;6.04;79.78;99191.31;1738646;82;21143;-71
2021/10/13 05:37:54;;;;;;;27.13;19.55;;;;;;;6.16;79.73;99193.86;1739060;82;21079;-70
2021/10/13 05:40:21;;;;;;;;;;;;;;;6.25;79.59;99202.59;1741697;82;21051;-70
2021/10/13 05:42:47;;;;;;;28.27;19.90;;;;;;;6.30;79.58;99205.89;1739062;82;20214;-70
2021/10/13 05:45:13;;;;;;;30.43;20.62;;;;;;;6.29;79.78;99207.77;1739315;82;21071;-69
2021/10/13 05:47:40;;;;;;;26.07;19.57;;;;;;;6.37;79.60;99208.66;1718343;82;21063;-70
2021/10/13 05:50:07;;;;;;;29.00;19.65;;;;;;;6.45;79.40;99197.36;1739293;82;21107;-70
2021/10/13 05:52:34;;;;;;;28.07;19.92;;;;;;;6.52;79.28;99193.64;1718250;82;21027;-70
2021/10/13 05:55:00;;;;;;;27.02;20.00;;;;;;;6.61;79.14;99194.25;1739106;82;21570;-69
2021/10/13 05:57:27;;;;;;;29.25;20.43;;;;;;;6.68;79.00;99198.08;1718624;82;21047;-70
2021/10/13 05:59:58;;;;;;;25.90;19.57;;;;;;;6.74;78.92;99198.38;1739098;82;21707;-70
2021/10/13 06:02:22;;;;;;;27.58;19.48;;;;;;;6.75;78.92;99192.73;1738070;81;21035;-69
2021/10/13 06:04:48;;;;;;;25.57;18.85;;;;;;;6.81;79.00;99198.98;1717911;82;21003;-70
2021/10/13 06:07:14;;;;;;;27.42;19.67;;;;;;;6.92;78.85;99205.55;1739561;82;21607;-71
2021/10/13 06:09:42;;;;;;;26.35;19.73;;;;;;;7.02;78.58;99212.92;1739088;82;21060;-70
2021/10/13 06:12:09;;;;;;;26.93;19.42;;;;;;;7.09;78.44;99213.50;1739457;82;21519;-69
2021/10/13 06:14:35;;;;;;;27.60;20.00;;;;;;;7.15;78.38;99217.89;1738844;82;21031;-69
2021/10/13 06:17:04;;;;;;;28.60;20.20;;;;;;;7.17;78.36;99215.72;1739130;82;21090;-70
2021/10/13 06:19:31;;;;;;;27.40;21.60;;;;;;;7.26;78.33;99208.72;1718881;82;21015;-70
2021/10/13 06:21:57;;;;;;;29.05;20.62;;;;;;;7.39;78.04;99205.56;1739585;82;21036;-69
2021/10/13 06:24:24;;;;;;;27.30;20.32;;;;;;;7.41;77.57;99215.58;1739158;82;21527;-69
2021/10/13 06:26:51;;;;;;;27.15;19.37;;;;;;;7.41;77.47;99211.52;1739034;82;21652;-70
2021/10/13 06:29:17;;;;;;;28.80;21.42;;;;;;;7.40;77.39;99217.21;1739532;82;21514;-70
2021/10/13 06:31:43;;;;;;;26.62;19.67;;;;;;;7.39;77.41;99219.63;1739203;82;21079;-70
2021/10/13 06:34:10;;;;;;;28.60;20.72;;;;;;;7.49;77.42;99216.44;1739422;82;20976;-69
2021/10/13 06:36:36;;;;;;;25.88;19.57;;;;;;;7.55;77.05;99208.31;1739169;82;21371;-70
2021/10/13 06:39:03;;;;;;;;;;;;;;;7.59;76.84;99208.06;1741891;82;21668;-70
2021/10/13 06:41:29;;;;;;;26.10;19.05;;;;;;;7.59;76.68;99220.25;1739077;82;20095;-70
2021/10/13 06:43:56;;;;;;;29.27;21.10;;;;;;;7.54;76.84;99219.72;1718689;82;21027;-69
2021/10/13 06:46:22;;;;;;;27.58;19.77;;;;;;;7.55;76.93;99228.63;1739349;82;21580;-70
2021/10/13 06:48:48;;;;;;;27.42;20.43;;;;;;;7.59;76.78;99226.48;1739729;82;21071;-71
2021/10/13 06:51:15;;;;;;;28.77;20.55;;;;;;;7.68;76.62;99233.58;1739431;82;21522;-70
2021/10/13 06:53:46;;;;;;;;;;;;;;;7.77;76.62;99234.16;1741426;82;21106;-70
2021/10/13 06:56:09;;;;;;;25.62;20.68;;;;;;;7.89;76.51;99236.64;1738844;82;20409;-70
2021/10/13 06:58:37;;;;;;;25.15;19.60;;;;;;;7.81;76.35;99244.73;1739179;82;21534;-70
2021/10/13 07:01:03;;;;;;;27.15;19.85;;;;;;;7.88;76.30;99243.95;1738581;82;21028;-70
2021/10/13 07:03:30;;;;;;;;;;;;;;;7.98;76.12;99240.45;1741828;82;21403;-70
2021/10/13 07:05:56;;;;;;;30.95;20.02;;;;;;;8.06;75.77;99239.94;1739082;82;20111;-70
2021/10/13 07:08:23;;;;;;;28.70;22.05;;;;;;;8.06;75.87;99232.34;1739415;82;21087;-69
2021/10/13 07:10:49;;;;;;;29.02;23.42;;;;;;;8.14;75.59;99227.22;1739009;82;21032;-70
2021/10/13 07:13:16;;;;;;;32.80;22.58;;;;;;;8.22;75.24;99229.95;1739033;82;21059;-69
2021/10/13 07:15:43;;;;;;;28.52;22.20;;;;;;;8.30;74.73;99234.32;1739312;82;21047;-69
2021/10/13 07:18:11;;;;;;;31.73;22.67;;;;;;;8.40;74.46;99239.75;1740464;81;21581;-71
2021/10/13 07:20:37;;;;;;;27.30;20.90;;;;;;;8.52;73.94;99241.39;1753196;82;21095;-70
2021/10/13 07:23:05;;;;;;;30.10;22.55;;;;;;;8.55;73.61;99241.67;1753373;81;21576;-71
2021/10/13 07:25:32;;;;;;;33.42;22.75;;;;;;;8.54;73.32;99240.03;1753265;81;21043;-70
2021/10/13 07:28:01;;;;;;;28.65;22.17;;;;;;;8.61;73.20;99239.80;1753611;81;20971;-71
2021/10/13 07:30:31;;;;;;;30.30;22.50;;;;;;;8.71;72.68;99237.08;1753021;81;21082;-70
2021/10/13 07:32:57;;;;;;;30.45;22.87;;;;;;;8.77;72.50;99234.09;1753524;82;20978;-71
2021/10/13 07:35:27;;;;;;;31.62;23.83;;;;;;;8.86;72.61;99232.98;1753203;81;21051;-71
2021/10/13 07:37:52;;;;;;;32.60;22.98;;;;;;;8.97;72.16;99231.89;1753392;81;21006;-70
2021/10/13 07:40:19;;;;;;;30.35;23.83;;;;;;;9.05;70.87;99228.63;1752824;82;21549;-71
2021/10/13 07:42:47;;;;;;;33.38;24.27;;;;;;;9.05;70.87;99228.63;1753342;82;21086;-71
2021/10/13 07:45:15;;;;;;;31.82;25.25;;;;;;;9.02;70.64;99229.72;1752946;81;21070;-71
2021/10/13 07:47:41;;;;;;;34.25;23.22;;;;;;;9.00;70.37;99232.69;1753433;81;20991;-70
2021/10/13 07:50:08;;;;;;;31.70;22.45;;;;;;;9.02;70.40;99237.86;1753079;81;21098;-70
2021/10/13 07:52:34;;;;;;;33.98;24.15;;;;;;;9.06;69.89;99231.63;1753241;81;21565;-71
2021/10/13 07:55:01;;;;;;;33.00;23.98;;;;;;;9.09;69.82;99232.97;1753289;82;21043;-70
2021/10/13 07:57:27;;;;;;;36.30;23.42;;;;;;;9.11;69.83;99224.80;1753221;82;21507;-71
2021/10/13 07:59:54;;;;;;;33.53;22.93;;;;;;;9.15;69.66;99227.78;1726258;81;21095;-70
2021/10/13 08:02:20;;;;;;;29.65;21.52;;;;;;;9.21;69.15;99226.71;1723562;83;20995;-70
2021/10/13 08:04:47;;;;;;;30.37;23.20;;;;;;;9.30;69.02;99225.05;1723295;83;21103;-72
2021/10/13 08:07:13;;;;;;;32.55;22.80;;;;;;;9.32;68.36;99225.03;1723494;83;21011;-70
2021/10/13 08:09:39;;;;;;;32.95;24.82;;;;;;;9.27;68.04;99226.95;1742824;82;21007;-70
2021/10/13 08:12:06;;;;;;;30.43;23.05;;;;;;;9.26;67.88;99238.91;1753416;81;21003;-71
2021/10/13 08:14:32;;;;;;;;;;;;;;;9.27;67.81;99244.61;1728155;82;21046;-71
2021/10/13 08:16:58;;;;;;;29.25;22.70;;;;;;;9.32;67.40;99244.05;1753111;82;20429;-70
2021/10/13 08:19:25;;;;;;;;;;;;;;;9.27;67.46;99234.56;1748542;81;21052;-71
2021/10/13 08:21:51;;;;;;;32.50;22.82;;;;;;;9.31;67.43;99233.47;1739093;82;20115;-70
2021/10/13 08:24:18;;;;;;;31.73;24.85;;;;;;;9.29;67.54;99232.92;1739278;82;21565;-71
2021/10/13 08:26:44;;;;;;;;;;;;;;;9.39;67.18;99233.70;1741640;82;21012;-71
2021/10/13 08:29:11;;;;;;;32.38;23.27;;;;;;;9.50;66.65;99234.48;1718101;82;20468;-71
2021/10/13 08:31:38;;;;;;;29.87;23.18;;;;;;;9.53;66.40;99230.42;1738901;82;21063;-70
2021/10/13 08:34:05;;;;;;;32.60;23.83;;;;;;;9.56;66.12;99229.33;1739328;82;21008;-70
2021/10/13 08:36:32;;;;;;;29.82;22.35;;;;;;;9.60;65.86;99230.38;1738884;82;21064;-70
2021/10/13 08:38:58;;;;;;;30.10;21.93;;;;;;;9.65;65.63;99232.27;1739124;82;21071;-70
2021/10/13 08:41:24;;;;;;;29.37;22.10;;;;;;;9.71;65.41;99232.50;1739331;82;21510;-71
2021/10/13 08:43:51;;;;;;;;;;;;;;;9.80;64.90;99226.23;1741456;82;21530;-69
2021/10/13 08:46:17;;;;;;;30.10;21.42;;;;;;;9.85;64.66;99223.47;1738774;82;20108;-72
2021/10/13 08:48:44;;;;;;;29.15;21.73;;;;;;;9.75;64.49;99223.52;1739113;82;21012;-70
2021/10/13 08:51:10;;;;;;;25.82;21.45;;;;;;;9.75;64.78;99231.68;1739491;82;21044;-71
2021/10/13 08:53:36;;;;;;;32.13;21.20;;;;;;;9.77;64.69;99230.05;1739092;82;20988;-70
2021/10/13 08:56:03;;;;;;;;;;;;;;;9.80;64.45;99224.05;1721265;82;21039;-72
2021/10/13 08:58:29;;;;;;;27.62;19.77;;;;;;;9.87;64.35;99222.66;1738902;82;20126;-71
2021/10/13 09:01:13;;;;;;;27.93;21.07;;;;;;;9.88;64.15;99222.13;1739384;82;21040;-71
2021/10/13 09:03:50;;;;;;;26.37;19.67;;;;;;;9.90;64.34;99230.26;1738943;82;21055;-71
2021/10/13 09:06:24;;;;;;;30.08;20.68;;;;;;;9.97;64.29;99229.41;1738281;82;21027;-71
2021/10/13 09:09:05;;;;;;;28.47;20.68;;;;;;;10.07;64.19;99222.27;1739138;82;21020;-70
2021/10/13 09:11:46;;;;;;;29.32;21.50;;;;;;;10.13;63.94;99228.76;1738748;82;21538;-71
2021/10/13 09:14:22;;;;;;;28.00;20.15;;;;;;;10.24;63.58;99231.72;1739105;82;21098;-69
2021/10/13 09:17:06;;;;;;;27.52;20.80;;;;;;;10.25;63.45;99236.08;1718181;82;21119;-71
2021/10/13 09:19:47;;;;;;;31.60;21.55;;;;;;;10.32;63.44;99237.94;1738778;81;20976;-70
2021/10/13 09:22:15;;;;;;;28.20;22.55;;;;;;;10.35;63.37;99238.73;1739322;82;21008;-70
2021/10/13 09:24:46;;;;;;;27.55;21.70;;;;;;;10.41;63.34;99237.62;1738894;82;21116;-71
2021/10/13 09:27:30;;;;;;;26.42;22.05;;;;;;;10.45;62.93;99241.38;1736813;82;20999;-70
2021/10/13 09:29:59;;;;;;;28.35;21.27;;;;;;;10.49;62.96;99241.08;1738703;82;21059;-70
2021/10/13 09:32:26;;;;;;;29.48;22.50;;;;;;;10.53;62.84;99239.97;1739205;82;21027;-71
2021/10/13 09:34:54;;;;;;;28.73;22.93;;;;;;;10.50;62.90;99239.17;1739168;82;20996;-71
2021/10/13 09:37:21;;;;;;;28.52;21.87;;;;;;;10.44;63.22;99250.66;1739225;82;20971;-71
2021/10/13 09:40:00;;;;;;;28.12;22.10;;;;;;;10.42;62.95;99244.66;1739560;82;21055;-70
2021/10/13 09:42:27;;;;;;;33.00;23.47;;;;;;;10.31;63.02;99248.54;1738918;82;20976;-71
2021/10/13 09:44:57;;;;;;;33.08;23.40;;;;;;;10.21;63.26;99251.33;1739588;82;21529;-71
2021/10/13 09:47:34;;;;;;;30.02;23.60;;;;;;;10.18;63.45;99248.36;1739234;82;21036;-70
2021/10/13 09:50:04;;;;;;;32.13;24.72;;;;;;;10.12;63.66;99246.19;1739265;82;21047;-70
2021/10/13 09:52:31;;;;;;;32.70;24.52;;;;;;;10.07;63.79;99253.55;1715718;82;21506;-69
2021/10/13 09:55:02;;;;;;;29.25;23.73;;;;;;;10.06;64.27;99257.38;1739223;82;21469;-70
2021/10/13 09:57:34;;;;;;;52.67;31.85;;;;;;;10.06;64.24;99252.73;1738885;82;21044;-69
2021/10/13 10:00:13;;;;;;;41.08;26.73;;;;;;;10.12;63.96;99257.61;1718363;82;21729;-70
2021/10/13 10:02:48;;;;;;;33.53;24.55;;;;;;;10.15;63.86;99252.45;1739136;82;21499;-70
2021/10/13 10:05:20;;;;;;;32.70;24.27;;;;;;;10.06;64.01;99255.45;1739432;82;21542;-71
2021/10/13 10:08:11;;;;;;;35.85;25.95;;;;;;;10.05;64.23;99261.19;1739300;82;21584;-70
2021/10/13 10:10:59;;;;;;;32.38;24.05;;;;;;;9.96;64.22;99258.22;1738852;82;21000;-70
2021/10/13 10:13:41;;;;;;;33.25;24.75;;;;;;;9.91;64.40;99256.91;1739497;82;21001;-70
2021/10/13 10:16:11;;;;;;;38.08;24.57;;;;;;;9.92;64.49;99254.43;1739254;82;21087;-71
2021/10/13 10:18:39;;;;;;;31.05;24.50;;;;;;;9.85;64.51;99258.81;1738960;82;21079;-69
2021/10/13 10:21:21;;;;;;;31.93;23.67;;;;;;;9.81;64.83;99256.95;1746713;81;21046;-71
2021/10/13 10:23:49;;;;;;;31.30;24.07;;;;;;;9.79;65.02;99253.68;1718017;82;20987;-71
2021/10/13 10:26:29;;;;;;;30.88;24.32;;;;;;;9.80;64.99;99258.85;1747236;82;21114;-70
2021/10/13 10:29:02;;;;;;;28.95;23.22;;;;;;;9.81;64.92;99258.31;1747526;82;21521;-71
2021/10/13 10:31:34;;;;;;;32.35;22.98;;;;;;;9.73;64.92;99258.88;1747347;82;21047;-70
2021/10/13 10:34:09;;;;;;;29.72;22.93;;;;;;;9.70;65.25;99261.61;1747228;82;20975;-71
2021/10/13 10:36:44;;;;;;;36.50;24.50;;;;;;;9.72;65.42;99264.86;1747453;82;21060;-72
2021/10/13 10:39:12;;;;;;;33.42;24.85;;;;;;;9.76;64.99;99263.22;1747309;82;21036;-68
2021/10/13 10:41:52;;;;;;;32.80;24.32;;;;;;;9.69;64.76;99261.34;1709025;82;21082;-69
2021/10/13 10:44:47;;;;;;;36.13;25.68;;;;;;;9.66;65.17;99259.18;1735581;81;20988;-68
2021/10/13 10:47:16;;;;;;;28.83;21.25;;;;;;;9.70;65.45;99258.08;1745098;82;20975;-68
2021/10/13 10:49:56;;;;;;;32.80;24.80;;;;;;;9.79;65.33;99255.04;1747607;82;21027;-68
2021/10/13 10:52:26;;;;;;;29.05;21.97;;;;;;;9.85;64.91;99262.08;1740345;82;21467;-69
2021/10/13 10:55:04;;;;;;;34.58;25.32;;;;;;;9.86;64.86;99265.07;1739036;82;21071;-69
2021/10/13 10:57:36;;;;;;;30.25;23.20;;;;;;;9.82;64.71;99258.02;1698865;82;21483;-71
2021/10/13 11:00:10;;;;;;;29.37;21.42;;;;;;;9.76;64.72;99265.11;1747362;82;21055;-69
2021/10/13 11:02:39;;;;;;;33.20;25.05;;;;;;;9.71;64.80;99261.86;1747495;82;21003;-71
2021/10/13 11:05:10;;;;;;;31.05;22.95;;;;;;;9.74;64.85;99263.23;1747461;82;21042;-71
2021/10/13 11:07:48;;;;;;;30.68;23.75;;;;;;;9.77;64.95;99268.11;1747275;82;21023;-71
2021/10/13 11:10:12;;;;;;;32.30;25.35;;;;;;;9.76;64.83;99267.83;1746153;82;21056;-73
2021/10/13 11:12:52;;;;;;;30.17;23.73;;;;;;;9.64;64.88;99264.06;1727927;82;20990;-70
2021/10/13 11:15:22;;;;;;;30.15;24.18;;;;;;;9.60;65.23;99265.70;1745662;82;21050;-70
2021/10/13 11:17:49;;;;;;;30.60;22.48;;;;;;;9.60;65.00;99268.98;1743411;82;21015;-70
2021/10/13 11:20:20;;;;;;;30.37;23.30;;;;;;;9.58;65.30;99265.17;1733134;82;21126;-70
2021/10/13 11:23:01;;;;;;;31.30;23.92;;;;;;;9.55;65.43;99258.94;1752688;82;21011;-70
2021/10/13 11:25:27;;;;;;;30.52;22.15;;;;;;;9.55;65.56;99254.05;1748762;81;21546;-70
2021/10/13 11:28:10;;;;;;;28.40;22.52;;;;;;;9.56;65.70;99254.32;1753159;81;20960;-70
2021/10/13 11:30:45;;;;;;;36.48;25.65;;;;;;;9.63;65.63;99260.28;1753078;82;21055;-70
2021/10/13 11:33:16;;;;;;;35.08;24.23;;;;;;;9.68;65.29;99255.63;1753204;82;21030;-71
2021/10/13 11:35:47;;;;;;;33.50;24.27;;;;;;;9.67;65.58;99258.06;1752762;81;21139;-71
2021/10/13 11:38:16;;;;;;;33.50;24.35;;;;;;;9.71;65.49;99258.33;1753018;82;21035;-70
2021/10/13 11:40:42;;;;;;;32.85;23.95;;;;;;;9.74;65.33;99265.95;1753130;82;21641;-69
2021/10/13 11:43:13;;;;;;;32.42;22.13;;;;;;;9.77;65.17;99258.59;1753649;81;21006;-71